createdAt,value
2018-01-18T00:01:26.765Z,4.70
2018-01-18T00:08:58.525Z,5.63
2018-01-18T00:11:24.782Z,5.40
2018-01-18T00:13:51.028Z,6.63
2018-01-18T00:28:56.972Z,8.50
2018-01-18T00:31:23.256Z,4.97
2018-01-18T00:33:49.658Z,8.53
2018-01-18T00:36:15.952Z,9.47
2018-01-18T00:41:14.317Z,7.30
2018-01-18T00:48:51.620Z,6.17
2018-01-18T00:51:18.726Z,8.97
2018-01-18T00:58:49.874Z,12.20
2018-01-18T01:11:24.934Z,7.93
2018-01-18T01:13:51.278Z,10.23
2018-01-18T01:18:50.267Z,7.90
2018-01-18T01:21:17.467Z,5.90
2018-01-18T01:26:15.711Z,8.70
2018-01-18T01:28:41.995Z,6.53
2018-01-18T01:33:40.236Z,4.90
2018-01-18T01:38:38.555Z,6.33
2018-01-18T01:51:13.240Z,8.30
2018-01-18T02:01:16.255Z,4.17
2018-01-18T02:03:42.535Z,10.07
2018-01-18T02:06:08.833Z,17.10
2018-01-18T02:13:38.996Z,7.10
2018-01-18T02:16:05.231Z,12.80
2018-01-18T02:23:36.144Z,6.20
2018-01-18T02:26:02.433Z,5.43
2018-01-18T02:28:30.387Z,8.70
2018-01-18T02:30:56.640Z,3.80
2018-01-18T02:35:55.871Z,9.63
2018-01-18T02:38:22.251Z,4.00
2018-01-18T02:43:20.526Z,8.27
2018-01-18T02:48:18.731Z,7.13
2018-01-18T02:55:49.811Z,7.60
2018-01-18T03:00:48.137Z,9.60
2018-01-18T03:08:19.128Z,8.20
2018-01-18T03:10:46.565Z,4.73
2018-01-18T03:13:13.816Z,4.43
2018-01-18T03:18:12.049Z,8.80
2018-01-18T03:20:38.455Z,7.87
2018-01-18T03:25:37.766Z,9.87
2018-01-18T03:33:09.212Z,7.83
2018-01-18T03:35:35.467Z,6.43
2018-01-18T03:40:34.594Z,11.53
2018-01-18T03:43:01.570Z,11.43
2018-01-18T03:45:27.849Z,6.50
2018-01-18T03:47:54.092Z,7.53
2018-01-18T03:50:20.332Z,7.70
2018-01-18T03:52:47.356Z,5.80
2018-01-18T03:55:13.624Z,7.33
2018-01-18T04:00:11.851Z,15.67
2018-01-18T04:10:14.430Z,6.90
2018-01-18T04:12:41.450Z,7.83
2018-01-18T04:15:07.718Z,6.73
2018-01-18T04:17:34.720Z,9.67
2018-01-18T04:22:33.527Z,9.13
2018-01-18T04:24:59.779Z,8.47
2018-01-18T04:29:58.163Z,6.80
2018-01-18T04:32:24.438Z,6.63
2018-01-18T04:37:22.803Z,8.00
2018-01-18T04:42:20.898Z,9.03
2018-01-18T04:44:47.145Z,4.33
2018-01-18T04:49:46.139Z,7.00
2018-01-18T04:54:45.250Z,7.13
2018-01-18T04:57:11.460Z,5.23
2018-01-18T04:59:37.715Z,5.43
2018-01-18T05:02:04.737Z,6.40
2018-01-18T05:04:30.989Z,7.00
2018-01-18T05:06:58.005Z,8.40
2018-01-18T05:09:24.275Z,14.37
2018-01-18T05:11:51.272Z,12.57
2018-01-18T05:14:17.557Z,8.97
2018-01-18T05:16:44.579Z,8.47
2018-01-18T05:19:10.883Z,6.00
2018-01-18T05:21:37.117Z,11.90
2018-01-18T05:24:03.391Z,5.50
2018-01-18T05:26:30.335Z,10.33
2018-01-18T05:31:30.041Z,7.43
2018-01-18T05:39:01.145Z,19.50
2018-01-18T05:43:59.385Z,2.97
2018-01-18T05:46:25.680Z,10.37
2018-01-18T05:51:23.924Z,10.40
2018-01-18T05:53:50.175Z,3.87
2018-01-18T05:56:17.224Z,6.07
2018-01-18T05:58:43.557Z,6.50
2018-01-18T06:06:22.220Z,8.60
2018-01-18T06:13:53.184Z,7.53
2018-01-18T06:23:55.969Z,10.57
2018-01-18T06:26:22.239Z,12.33
2018-01-18T06:33:52.449Z,12.60
2018-01-18T06:36:18.729Z,11.10
2018-01-18T06:43:49.673Z,10.20
2018-01-18T06:46:15.942Z,6.90
2018-01-18T06:53:46.895Z,8.40
2018-01-18T06:58:45.639Z,9.20
2018-01-18T07:13:52.269Z,13.57
2018-01-18T07:16:18.579Z,4.73
2018-01-18T07:21:16.960Z,5.97
2018-01-18T07:23:43.204Z,5.67
2018-01-18T07:26:09.492Z,4.77
2018-01-18T07:28:35.731Z,5.50
2018-01-18T07:41:09.858Z,14.83
2018-01-18T07:43:36.148Z,9.80
2018-01-18T07:46:02.424Z,6.17
2018-01-18T07:51:01.329Z,3.47
2018-01-18T07:55:59.624Z,7.07
2018-01-18T08:01:06.413Z,2.13
2018-01-18T08:03:38.895Z,5.80
2018-01-18T08:06:05.210Z,3.97
2018-01-18T08:08:31.443Z,5.03
2018-01-18T08:10:57.749Z,4.23
2018-01-18T08:13:23.998Z,4.80
2018-01-18T08:20:54.316Z,6.37
2018-01-18T08:23:20.556Z,4.27
2018-01-18T08:25:46.785Z,2.17
2018-01-18T08:28:13.067Z,4.73
2018-01-18T08:33:11.348Z,2.33
2018-01-18T08:35:37.593Z,3.90
2018-01-18T08:43:09.498Z,3.83
2018-01-18T08:45:36.517Z,5.60
2018-01-18T08:48:02.779Z,3.63
2018-01-18T08:50:29.779Z,1.83
2018-01-18T08:52:55.999Z,3.20
2018-01-18T08:55:22.245Z,3.37
2018-01-18T08:57:48.537Z,4.67
2018-01-18T09:00:14.808Z,3.20
2018-01-18T09:05:12.986Z,1.83
2018-01-18T09:12:44.850Z,1.23
2018-01-18T09:15:11.075Z,2.03
2018-01-18T09:22:41.425Z,7.73
2018-01-18T09:27:39.624Z,0.70
2018-01-18T09:30:05.909Z,1.63
2018-01-18T09:37:36.342Z,1.70
2018-01-18T09:42:34.673Z,1.70
2018-01-18T09:45:00.949Z,0.70
2018-01-18T09:49:59.254Z,0.87
2018-01-18T09:54:57.586Z,1.60
2018-01-18T10:04:59.643Z,7.53
2018-01-18T10:12:30.686Z,0.53
2018-01-18T10:14:56.961Z,0.70
2018-01-18T10:17:23.241Z,0.90
2018-01-18T10:19:49.501Z,0.53
2018-01-18T10:22:16.484Z,1.70
2018-01-18T10:24:42.740Z,0.50
2018-01-18T10:27:09.016Z,0.50
2018-01-18T10:29:35.231Z,0.40
2018-01-18T10:32:02.251Z,0.50
2018-01-18T10:34:28.499Z,0.50
2018-01-18T10:36:55.327Z,0.50
2018-01-18T10:39:21.648Z,0.40
2018-01-18T10:41:47.936Z,2.17
2018-01-18T10:44:14.260Z,1.30
2018-01-18T10:46:40.495Z,0.50
2018-01-18T10:49:07.626Z,0.70
2018-01-18T10:51:34.608Z,0.50
2018-01-18T10:54:00.866Z,0.50
2018-01-18T10:56:27.153Z,0.40
2018-01-18T10:58:53.473Z,0.50
2018-01-18T11:01:19.651Z,0.40
2018-01-18T11:03:45.935Z,0.40
2018-01-18T11:06:12.183Z,0.67
2018-01-18T11:08:38.468Z,1.80
2018-01-18T11:11:04.747Z,1.33
2018-01-18T11:13:31.051Z,0.60
2018-01-18T11:15:58.083Z,0.63
2018-01-18T11:18:26.368Z,0.50
2018-01-18T11:20:53.452Z,1.03
2018-01-18T11:23:19.742Z,0.40
2018-01-18T11:25:46.707Z,0.93
2018-01-18T11:28:12.952Z,1.50
2018-01-18T11:30:39.244Z,0.50
2018-01-18T11:33:06.234Z,1.00
2018-01-18T11:35:32.452Z,0.60
2018-01-18T11:37:59.581Z,0.60
2018-01-18T11:40:26.726Z,0.50
2018-01-18T11:42:53.015Z,0.77
2018-01-18T11:45:19.264Z,0.50
2018-01-18T11:47:45.541Z,1.03
2018-01-18T11:50:11.816Z,0.47
2018-01-18T11:52:38.119Z,1.37
2018-01-18T11:55:04.362Z,1.63
2018-01-18T11:57:30.639Z,0.40
2018-01-18T11:59:57.679Z,0.37
2018-01-18T12:02:24.649Z,0.40
2018-01-18T12:04:50.875Z,0.40
2018-01-18T12:07:17.195Z,0.47
2018-01-18T12:09:44.200Z,0.40
2018-01-18T12:12:10.491Z,0.50
2018-01-18T12:14:36.728Z,0.40
2018-01-18T12:17:02.984Z,0.40
2018-01-18T12:19:29.240Z,0.50
2018-01-18T12:21:55.515Z,0.40
2018-01-18T12:24:21.967Z,0.50
2018-01-18T12:26:48.291Z,0.40
2018-01-18T12:29:14.564Z,0.50
2018-01-18T12:31:40.880Z,0.40
2018-01-18T12:34:07.276Z,1.43
2018-01-18T12:36:33.574Z,0.40
2018-01-18T12:39:00.588Z,0.40
2018-01-18T12:41:26.868Z,1.37
2018-01-18T12:43:53.090Z,0.77
2018-01-18T12:46:19.355Z,0.40
2018-01-18T12:48:45.621Z,0.60
2018-01-18T12:51:11.881Z,1.10
2018-01-18T12:53:38.138Z,0.60
2018-01-18T12:56:04.472Z,1.30
2018-01-18T12:58:41.000Z,0.53
2018-01-18T13:01:08.048Z,1.03
2018-01-18T13:03:35.092Z,0.87
2018-01-18T13:06:02.163Z,0.70
2018-01-18T13:08:28.447Z,0.60
2018-01-18T13:11:02.479Z,0.50
2018-01-18T13:13:29.456Z,0.50
2018-01-18T13:15:55.778Z,0.53
2018-01-18T13:18:22.032Z,0.60
2018-01-18T13:20:48.326Z,0.97
2018-01-18T13:23:15.525Z,4.70
2018-01-18T13:25:41.892Z,0.93
2018-01-18T13:28:08.883Z,0.50
2018-01-18T13:30:35.251Z,2.50
2018-01-18T13:33:01.613Z,1.70
2018-01-18T13:35:28.876Z,5.07
2018-01-18T13:37:55.207Z,0.60
2018-01-18T13:40:22.299Z,1.53
2018-01-18T13:42:48.783Z,1.63
2018-01-18T13:45:22.873Z,0.70
2018-01-18T13:47:49.176Z,0.70
2018-01-18T13:50:15.407Z,2.20
2018-01-18T13:52:41.669Z,0.60
2018-01-18T13:55:08.703Z,1.27
2018-01-18T13:57:35.003Z,1.83
2018-01-18T14:00:01.308Z,1.57
2018-01-18T14:02:27.599Z,0.80
2018-01-18T14:04:53.923Z,0.97
2018-01-18T14:07:20.293Z,2.30
2018-01-18T14:09:47.309Z,1.40
2018-01-18T14:12:13.600Z,2.70
2018-01-18T14:14:39.916Z,4.50
2018-01-18T14:17:06.198Z,3.43
2018-01-18T14:19:33.210Z,4.47
2018-01-18T14:21:59.424Z,4.07
2018-01-18T14:24:25.696Z,6.73
2018-01-18T14:26:51.936Z,4.50
2018-01-18T14:29:19.022Z,6.67
2018-01-18T14:31:45.255Z,4.10
2018-01-18T14:34:11.600Z,4.97
2018-01-18T14:36:37.860Z,8.07
2018-01-18T14:39:04.134Z,6.20
2018-01-18T14:41:31.171Z,6.27
2018-01-18T14:43:58.155Z,6.33
2018-01-18T14:46:24.432Z,5.33
2018-01-18T14:48:50.674Z,2.60
2018-01-18T14:51:17.775Z,1.90
2018-01-18T14:53:51.072Z,1.27
2018-01-18T14:56:18.018Z,7.67
2018-01-18T14:58:44.305Z,3.53
2018-01-18T15:01:11.382Z,5.63
2018-01-18T15:03:37.620Z,3.87
2018-01-18T15:06:03.912Z,5.50
2018-01-18T15:08:30.958Z,6.70
2018-01-18T15:10:57.981Z,2.53
2018-01-18T15:13:24.251Z,7.60
2018-01-18T15:15:50.539Z,2.67
2018-01-18T15:18:16.841Z,3.73
2018-01-18T15:20:43.101Z,1.17
2018-01-18T15:23:10.057Z,5.90
2018-01-18T15:25:36.323Z,7.40
2018-01-18T15:28:02.676Z,1.47
2018-01-18T15:30:29.789Z,2.43
2018-01-18T15:32:56.806Z,1.27
2018-01-18T15:35:23.835Z,4.87
2018-01-18T15:37:50.124Z,1.53
2018-01-18T15:40:16.460Z,1.27
2018-01-18T15:42:42.749Z,4.33
2018-01-18T15:45:09.068Z,10.20
2018-01-18T15:47:35.406Z,2.97
2018-01-18T15:50:01.668Z,0.70
2018-01-18T15:52:28.728Z,1.97
2018-01-18T15:54:55.068Z,2.37
2018-01-18T15:57:21.316Z,0.50
2018-01-18T15:59:47.598Z,3.03
2018-01-18T16:02:14.605Z,1.17
2018-01-18T16:04:40.910Z,3.73
2018-01-18T16:07:07.187Z,1.10
2018-01-18T16:09:33.461Z,0.63
2018-01-18T16:11:59.769Z,2.40
2018-01-18T16:14:26.804Z,2.93
2018-01-18T16:16:53.037Z,0.63
2018-01-18T16:19:20.109Z,7.47
2018-01-18T16:21:46.391Z,1.33
2018-01-18T16:24:13.497Z,2.40
2018-01-18T16:26:39.802Z,2.43
2018-01-18T16:29:06.804Z,0.60
2018-01-18T16:31:33.128Z,1.93
2018-01-18T16:33:59.428Z,1.10
2018-01-18T16:36:25.729Z,2.57
2018-01-18T16:38:52.715Z,2.00
2018-01-18T16:41:19.052Z,1.17
2018-01-18T16:43:45.321Z,4.53
2018-01-18T16:46:11.579Z,1.53
2018-01-18T16:48:38.668Z,3.60
2018-01-18T16:51:04.953Z,6.53
2018-01-18T16:53:31.986Z,2.00
2018-01-18T16:55:58.279Z,1.70
2018-01-18T16:58:24.532Z,2.70
2018-01-18T17:00:50.818Z,4.93
2018-01-18T17:03:17.175Z,2.83
2018-01-18T17:05:43.481Z,1.20
2018-01-18T17:08:09.754Z,4.00
2018-01-18T17:10:35.999Z,0.90
2018-01-18T17:13:03.003Z,0.87
2018-01-18T17:15:29.337Z,2.57
2018-01-18T17:17:55.659Z,1.37
2018-01-18T17:20:21.978Z,3.27
2018-01-18T17:22:48.280Z,0.60
2018-01-18T17:25:15.471Z,0.50
2018-01-18T17:27:41.824Z,1.37
2018-01-18T17:30:08.140Z,3.37
2018-01-18T17:32:35.282Z,2.17
2018-01-18T17:35:01.670Z,1.70
2018-01-18T17:37:27.930Z,1.43
2018-01-18T17:39:54.250Z,0.87
2018-01-18T17:42:21.313Z,2.70
2018-01-18T17:44:47.704Z,1.53
2018-01-18T17:47:14.093Z,1.67
2018-01-18T17:49:40.466Z,2.50
2018-01-18T17:52:07.535Z,0.60
2018-01-18T17:54:34.519Z,1.23
2018-01-18T17:57:01.558Z,1.63
2018-01-18T17:59:27.838Z,2.00
2018-01-18T18:01:55.691Z,1.87
2018-01-18T18:04:22.104Z,1.47
2018-01-18T18:06:48.329Z,1.97
2018-01-18T18:09:15.520Z,1.10
2018-01-18T18:11:41.850Z,0.77
2018-01-18T18:14:09.633Z,1.63
2018-01-18T18:16:36.782Z,0.50
2018-01-18T18:19:03.083Z,1.50
2018-01-18T18:21:29.350Z,0.93
2018-01-18T18:23:56.477Z,0.90
2018-01-18T18:26:22.787Z,0.50
2018-01-18T18:28:49.483Z,1.30
2018-01-18T18:31:16.636Z,0.50
2018-01-18T18:33:42.924Z,2.20
2018-01-18T18:36:09.227Z,2.20
2018-01-18T18:38:36.591Z,0.50
2018-01-18T18:41:03.047Z,2.57
2018-01-18T18:43:30.126Z,1.70
2018-01-18T18:45:57.138Z,1.10
2018-01-18T18:48:23.409Z,1.83
2018-01-18T18:50:50.404Z,0.63
2018-01-18T18:53:16.746Z,0.40
2018-01-18T18:55:43.029Z,0.50
2018-01-18T18:58:09.457Z,1.97
2018-01-18T19:00:36.073Z,2.63
2018-01-18T19:03:03.172Z,1.43
2018-01-18T19:05:29.484Z,0.70
2018-01-18T19:07:55.765Z,0.87
2018-01-18T19:10:22.213Z,3.27
2018-01-18T19:12:48.657Z,0.77
2018-01-18T19:15:15.720Z,1.17
2018-01-18T19:17:42.022Z,4.73
2018-01-18T19:20:08.388Z,1.47
2018-01-18T19:22:34.722Z,0.50
2018-01-18T19:25:01.011Z,1.10
2018-01-18T19:27:28.060Z,0.93
2018-01-18T19:29:54.354Z,1.13
2018-01-18T19:32:20.620Z,0.50
2018-01-18T19:34:46.988Z,0.60
2018-01-18T19:37:13.399Z,1.70
2018-01-18T19:39:39.661Z,2.37
2018-01-18T19:42:05.974Z,0.50
2018-01-18T19:44:33.012Z,0.90
2018-01-18T19:47:00.051Z,1.83
2018-01-18T19:49:27.126Z,1.00
2018-01-18T19:51:53.433Z,0.83
2018-01-18T19:54:20.429Z,1.20
2018-01-18T19:56:46.724Z,1.87
2018-01-18T19:59:13.763Z,0.60
2018-01-18T20:01:40.837Z,1.10
2018-01-18T20:04:07.091Z,2.30
2018-01-18T20:06:33.359Z,0.60
2018-01-18T20:08:59.633Z,4.77
2018-01-18T20:11:25.931Z,1.10
2018-01-18T20:13:52.945Z,3.10
2018-01-18T20:16:19.257Z,3.90
2018-01-18T20:18:45.624Z,2.10
2018-01-18T20:21:11.940Z,1.77
2018-01-18T20:23:38.295Z,0.60
2018-01-18T20:26:04.661Z,0.70
2018-01-18T20:28:31.030Z,2.00
2018-01-18T20:30:57.310Z,0.77
2018-01-18T20:33:23.761Z,1.47
2018-01-18T20:35:50.096Z,1.90
2018-01-18T20:38:16.427Z,1.40
2018-01-18T20:40:42.740Z,1.70
2018-01-18T20:43:09.094Z,2.20
2018-01-18T20:45:35.474Z,0.93
2018-01-18T20:48:02.674Z,1.40
2018-01-18T20:50:28.988Z,4.83
2018-01-18T20:52:55.308Z,0.83
2018-01-18T20:55:22.345Z,2.20
2018-01-18T20:57:49.596Z,1.60
2018-01-18T21:00:16.605Z,0.80
2018-01-18T21:02:42.885Z,1.07
2018-01-18T21:05:09.880Z,0.77
2018-01-18T21:07:36.246Z,2.00
2018-01-18T21:10:03.279Z,1.73
2018-01-18T21:12:29.577Z,1.87
2018-01-18T21:14:55.851Z,2.43
2018-01-18T21:17:22.911Z,1.83
2018-01-18T21:19:49.935Z,4.23
2018-01-18T21:22:16.238Z,2.70
2018-01-18T21:24:42.529Z,0.93
2018-01-18T21:27:09.544Z,2.80
2018-01-18T21:29:35.866Z,2.30
2018-01-18T21:32:02.116Z,2.10
2018-01-18T21:34:28.600Z,2.00
2018-01-18T21:36:54.877Z,2.60
2018-01-18T21:39:21.148Z,2.70
2018-01-18T21:41:47.464Z,2.27
2018-01-18T21:44:14.511Z,1.73
2018-01-18T21:46:41.576Z,4.30
2018-01-18T21:49:07.796Z,3.47
2018-01-18T21:51:34.150Z,2.43
2018-01-18T21:54:01.191Z,1.97
2018-01-18T21:56:27.521Z,3.90
2018-01-18T21:58:53.822Z,1.30
2018-01-18T22:01:20.821Z,6.10
2018-01-18T22:03:47.148Z,2.67
2018-01-18T22:06:13.380Z,3.30
2018-01-18T22:08:39.681Z,5.63
2018-01-18T22:11:05.951Z,3.43
2018-01-18T22:13:32.222Z,3.90
2018-01-18T22:15:59.285Z,4.80
2018-01-18T22:18:25.641Z,3.33
2018-01-18T22:20:51.999Z,5.60
2018-01-18T22:23:18.279Z,4.43
2018-01-18T22:25:44.653Z,8.10
2018-01-18T22:28:10.914Z,3.83
2018-01-18T22:30:37.280Z,3.80
2018-01-18T22:33:03.579Z,4.03
2018-01-18T22:35:30.598Z,3.10
2018-01-18T22:37:56.870Z,7.63
2018-01-18T22:40:23.872Z,3.93
2018-01-18T22:42:50.155Z,2.67
2018-01-18T22:45:16.461Z,2.43
2018-01-18T22:47:42.725Z,2.60
2018-01-18T22:50:09.062Z,3.17
2018-01-18T22:52:35.372Z,3.47
2018-01-18T22:55:02.441Z,2.90
2018-01-18T22:57:28.688Z,4.87
2018-01-18T22:59:54.945Z,3.07
2018-01-18T23:02:21.216Z,5.90
2018-01-18T23:04:47.451Z,4.73
2018-01-18T23:07:13.719Z,8.90
2018-01-18T23:09:40.051Z,5.60
2018-01-18T23:12:06.274Z,6.73
2018-01-18T23:14:32.539Z,4.17
2018-01-18T23:16:59.523Z,3.47
2018-01-18T23:19:25.821Z,2.67
2018-01-18T23:21:52.839Z,2.70
2018-01-18T23:24:19.092Z,6.63
2018-01-18T23:26:46.105Z,4.60
2018-01-18T23:29:12.370Z,2.93
2018-01-18T23:31:39.392Z,4.00
2018-01-18T23:34:05.632Z,3.33
2018-01-18T23:36:32.642Z,2.40
2018-01-18T23:38:58.927Z,1.73
2018-01-18T23:41:25.950Z,2.93
2018-01-18T23:43:52.244Z,2.10
2018-01-18T23:46:18.554Z,2.07
2018-01-18T23:48:44.821Z,3.70
2018-01-18T23:51:11.059Z,3.60
2018-01-18T23:53:37.340Z,5.03
2018-01-18T23:56:03.665Z,2.33
2018-01-18T23:58:31.626Z,2.10
